createdAt,value
2023-04-05T00:04:52.304Z,53.21
2023-04-05T00:10:13.242Z,53.02
2023-04-05T00:15:33.998Z,53.16
2023-04-05T00:20:54.531Z,53.71
2023-04-05T00:26:15.563Z,53.53
2023-04-05T00:31:41.217Z,53.87
2023-04-05T00:37:01.908Z,53.51
2023-04-05T00:42:22.660Z,53.47
2023-04-05T00:47:44.190Z,53.47
2023-04-05T00:53:05.544Z,53.56
2023-04-05T00:58:26.362Z,53.68
2023-04-05T01:03:53.826Z,53.83
2023-04-05T01:09:23.424Z,53.82
2023-04-05T01:14:50.255Z,54.18
2023-04-05T01:20:11.937Z,53.85
2023-04-05T01:26:02.537Z,54.13
2023-04-05T01:31:35.383Z,54.27
2023-04-05T01:37:02.682Z,53.78
2023-04-05T01:42:26.016Z,53.83
2023-04-05T01:47:47.081Z,54.09
2023-04-05T01:53:08.437Z,53.91
2023-04-05T01:58:29.441Z,53.86
2023-04-05T02:03:50.419Z,53.71
2023-04-05T02:09:11.363Z,53.97
2023-04-05T02:14:32.489Z,53.55
2023-04-05T02:19:53.280Z,53.70
2023-04-05T02:25:14.627Z,53.60
2023-04-05T02:30:35.370Z,53.50
2023-04-05T02:35:56.357Z,53.76
2023-04-05T02:41:17.797Z,53.62
2023-04-05T02:46:38.656Z,53.69
2023-04-05T02:51:59.876Z,53.54
2023-04-05T02:57:20.688Z,53.35
2023-04-05T03:02:48.970Z,53.54
2023-04-05T03:08:18.592Z,53.62
2023-04-05T03:13:46.601Z,53.61
2023-04-05T03:19:22.479Z,53.71
2023-04-05T03:24:47.902Z,53.82
2023-04-05T03:30:11.989Z,53.95
2023-04-05T03:35:39.091Z,53.99
2023-04-05T03:41:02.981Z,54.14
2023-04-05T03:46:24.369Z,53.47
2023-04-05T03:51:46.473Z,53.58
2023-04-05T03:57:07.612Z,53.86
2023-04-05T04:02:29.281Z,53.45
2023-04-05T04:07:50.162Z,53.61
2023-04-05T04:13:12.815Z,53.70
2023-04-05T04:18:34.112Z,53.51
2023-04-05T04:24:19.552Z,53.92
2023-04-05T04:29:48.259Z,54.21
2023-04-05T04:35:39.295Z,54.31
2023-04-05T04:41:26.838Z,53.62
2023-04-05T04:47:14.799Z,54.22
2023-04-05T04:52:54.550Z,54.39
2023-04-05T04:58:15.910Z,54.38
2023-04-05T05:03:40.354Z,54.68
2023-04-05T05:09:01.389Z,54.05
2023-04-05T05:14:23.797Z,53.86
2023-04-05T05:19:45.663Z,54.95
2023-04-05T05:25:07.395Z,54.43
2023-04-05T05:30:28.818Z,53.70
2023-04-05T05:35:51.368Z,53.98
2023-04-05T05:41:12.169Z,53.98
2023-04-05T05:46:33.190Z,54.22
2023-04-05T05:51:53.844Z,53.79
2023-04-05T05:57:14.593Z,54.80
2023-04-05T06:02:35.409Z,54.79
2023-04-05T06:07:56.025Z,55.97
2023-04-05T06:13:17.330Z,55.16
2023-04-05T06:18:38.426Z,54.28
2023-04-05T06:23:59.277Z,54.10
2023-04-05T06:29:20.116Z,53.51
2023-04-05T06:34:41.149Z,53.11
2023-04-05T06:40:02.011Z,52.40
2023-04-05T06:45:23.468Z,53.06
2023-04-05T06:50:44.218Z,52.66
2023-04-05T06:56:05.199Z,52.73
2023-04-05T07:01:26.399Z,51.80
2023-04-05T07:06:47.350Z,52.74
2023-04-05T07:12:08.957Z,52.47
2023-04-05T07:17:29.710Z,51.67
2023-04-05T07:22:50.445Z,51.66
2023-04-05T07:28:11.097Z,52.04
2023-04-05T07:33:32.144Z,51.80
2023-04-05T07:38:57.546Z,51.65
2023-04-05T07:44:18.459Z,51.56
2023-04-05T07:49:39.338Z,51.78
2023-04-05T07:55:00.217Z,51.89
2023-04-05T08:00:21.506Z,51.57
2023-04-05T08:05:42.606Z,51.91
2023-04-05T08:11:04.183Z,51.32
2023-04-05T08:16:24.840Z,52.11
2023-04-05T08:21:45.632Z,51.69
2023-04-05T08:27:06.520Z,51.67
2023-04-05T08:32:27.429Z,52.05
2023-04-05T08:37:48.686Z,51.11
2023-04-05T08:43:31.321Z,51.23
2023-04-05T08:48:53.372Z,50.97
2023-04-05T08:54:14.778Z,50.53
2023-04-05T08:59:42.092Z,51.43
2023-04-05T09:05:03.943Z,51.25
2023-04-05T09:10:27.314Z,51.20
2023-04-05T09:15:48.887Z,51.00
2023-04-05T09:21:10.222Z,50.74
2023-04-05T09:31:54.961Z,50.20
2023-04-05T09:37:20.609Z,50.03
2023-04-05T09:42:48.284Z,49.63
2023-04-05T09:48:10.279Z,49.70
2023-04-05T09:53:31.193Z,49.56
2023-04-05T09:58:52.440Z,49.73
2023-04-05T10:04:13.098Z,49.43
2023-04-05T10:09:35.464Z,49.07
2023-04-05T10:14:57.163Z,48.14
2023-04-05T10:20:21.101Z,48.79
2023-04-05T10:25:53.724Z,48.95
2023-04-05T10:31:45.815Z,48.95
2023-04-05T10:37:07.446Z,49.07
2023-04-05T10:42:34.983Z,49.06
2023-04-05T10:48:07.047Z,49.04
2023-04-05T10:53:28.635Z,48.91
2023-04-05T10:58:50.839Z,49.90
2023-04-05T11:04:13.617Z,49.66
2023-04-05T11:09:35.089Z,48.58
2023-04-05T11:15:27.951Z,48.83
2023-04-05T11:20:56.011Z,47.93
2023-04-05T11:26:16.985Z,48.08
2023-04-05T11:31:57.943Z,48.08
2023-04-05T11:37:18.665Z,48.35
2023-04-05T11:42:39.422Z,48.04
2023-04-05T11:48:11.812Z,47.73
2023-04-05T11:53:32.367Z,48.05
2023-04-05T11:58:58.443Z,48.16
2023-04-05T12:04:19.508Z,47.47
2023-04-05T12:10:04.662Z,47.27
2023-04-05T12:15:25.341Z,46.92
2023-04-05T12:20:46.335Z,47.48
2023-04-05T12:26:08.670Z,47.10
2023-04-05T12:31:37.477Z,47.06
2023-04-05T12:37:00.715Z,47.27
2023-04-05T12:42:22.704Z,47.04
2023-04-05T12:47:50.941Z,47.33
2023-04-05T12:53:23.372Z,47.07
2023-04-05T12:58:48.600Z,46.85
2023-04-05T13:04:16.013Z,46.29
2023-04-05T13:09:37.613Z,46.62
2023-04-05T13:14:58.345Z,46.65
2023-04-05T13:20:19.174Z,46.51
2023-04-05T13:25:41.829Z,47.07
2023-04-05T13:31:03.746Z,46.76
2023-04-05T13:36:24.604Z,46.46
2023-04-05T13:41:45.588Z,46.96
2023-04-05T13:47:06.525Z,47.16
2023-04-05T13:52:27.294Z,46.87
2023-04-05T13:57:48.562Z,46.77
2023-04-05T14:03:09.463Z,47.21
2023-04-05T14:08:30.345Z,49.10
2023-04-05T14:13:51.621Z,46.82
2023-04-05T14:19:12.769Z,46.60
2023-04-05T14:24:33.893Z,46.68
2023-04-05T14:29:58.465Z,46.23
2023-04-05T14:35:19.102Z,46.77
2023-04-05T14:40:40.193Z,46.49
2023-04-05T14:46:01.225Z,46.58
2023-04-05T14:51:21.906Z,46.69
2023-04-05T14:56:42.624Z,47.34
2023-04-05T15:02:03.747Z,47.32
2023-04-05T15:07:24.746Z,46.93
2023-04-05T15:12:45.549Z,46.97
2023-04-05T15:18:08.121Z,46.94
2023-04-05T15:23:29.012Z,47.56
2023-04-05T15:28:49.710Z,47.57
2023-04-05T15:34:10.557Z,46.85
2023-04-05T15:39:31.614Z,47.02
2023-04-05T15:44:52.258Z,47.26
2023-04-05T15:50:13.254Z,47.21
2023-04-05T15:55:34.423Z,47.61
2023-04-05T16:00:55.454Z,47.17
2023-04-05T16:06:16.706Z,47.27
2023-04-05T16:11:37.497Z,47.10
2023-04-05T16:16:58.414Z,47.41
2023-04-05T16:22:19.166Z,46.66
2023-04-05T16:27:40.216Z,47.34
2023-04-05T16:33:01.132Z,47.50
2023-04-05T16:38:22.153Z,47.40
2023-04-05T16:43:42.985Z,47.17
2023-04-05T16:49:04.039Z,47.28
2023-04-05T16:54:25.492Z,47.78
2023-04-05T16:59:46.466Z,47.93
2023-04-05T17:05:07.535Z,47.99
2023-04-05T17:10:28.549Z,48.15
2023-04-05T17:15:49.541Z,48.31
2023-04-05T17:21:12.349Z,48.72
2023-04-05T17:26:33.083Z,48.95
2023-04-05T17:31:53.951Z,49.32
2023-04-05T17:37:14.919Z,48.52
2023-04-05T17:42:35.859Z,48.77
2023-04-05T17:47:57.240Z,49.14
2023-04-05T17:53:19.508Z,48.81
2023-04-05T17:58:40.359Z,48.74
2023-04-05T18:04:01.193Z,48.92
2023-04-05T18:09:22.408Z,49.12
2023-04-05T18:14:43.125Z,49.38
2023-04-05T18:20:04.962Z,49.44
2023-04-05T18:25:26.632Z,49.34
2023-04-05T18:30:50.186Z,49.55
2023-04-05T18:36:15.022Z,50.15
2023-04-05T18:41:35.593Z,49.44
2023-04-05T18:46:57.095Z,49.66
2023-04-05T18:52:22.683Z,50.05
2023-04-05T18:57:43.288Z,50.28
2023-04-05T19:03:04.156Z,50.69
2023-04-05T19:08:25.697Z,50.48
2023-04-05T19:13:46.653Z,50.26
2023-04-05T19:19:07.878Z,50.44
2023-04-05T19:24:29.154Z,50.17
2023-04-05T19:29:50.032Z,50.75
2023-04-05T19:35:10.939Z,50.58
2023-04-05T19:40:32.231Z,53.58
2023-04-05T19:45:57.350Z,50.78
2023-04-05T19:51:19.649Z,50.41
2023-04-05T19:56:42.004Z,50.80
2023-04-05T20:02:10.208Z,50.26
2023-04-05T20:07:31.285Z,50.68
2023-04-05T20:12:52.449Z,50.87
2023-04-05T20:18:39.993Z,50.60
2023-04-05T20:24:02.032Z,51.01
2023-04-05T20:29:28.800Z,51.02
2023-04-05T20:34:49.835Z,50.66
2023-04-05T20:40:11.878Z,51.09
2023-04-05T20:45:33.309Z,50.93
2023-04-05T20:50:54.359Z,50.59
2023-04-05T20:56:15.898Z,50.50
2023-04-05T21:01:38.045Z,50.87
2023-04-05T21:06:59.155Z,50.87
2023-04-05T21:12:20.215Z,50.95
2023-04-05T21:17:41.142Z,51.37
2023-04-05T21:23:04.092Z,51.79
2023-04-05T21:28:26.248Z,51.27
2023-04-05T21:33:47.069Z,51.64
2023-04-05T21:39:08.175Z,51.79
2023-04-05T21:44:29.227Z,51.27
2023-04-05T21:49:50.693Z,51.11
2023-04-05T21:55:12.139Z,51.46
2023-04-05T22:00:33.258Z,52.25
2023-04-05T22:05:54.055Z,51.52
2023-04-05T22:11:14.923Z,52.34
2023-04-05T22:16:35.818Z,52.00
2023-04-05T22:21:56.782Z,51.95
2023-04-05T22:27:18.575Z,52.47
2023-04-05T22:32:39.556Z,51.99
2023-04-05T22:38:00.306Z,51.57
2023-04-05T22:43:21.062Z,52.43
2023-04-05T22:48:42.005Z,52.38
2023-04-05T22:54:03.128Z,52.28
2023-04-05T22:59:23.983Z,52.53
2023-04-05T23:04:44.768Z,52.14
2023-04-05T23:10:05.667Z,52.29
2023-04-05T23:15:26.802Z,52.08
2023-04-05T23:20:47.429Z,52.10
2023-04-05T23:26:08.230Z,52.33
2023-04-05T23:31:29.161Z,52.22
2023-04-05T23:36:49.989Z,52.49
2023-04-05T23:42:10.814Z,52.13
2023-04-05T23:47:31.674Z,52.54
2023-04-05T23:52:52.600Z,52.97
2023-04-05T23:58:13.193Z,52.57
